Station info - map view · info · telemetry · weather · raw · status · beacons · messages · bulletins · browse · moving · my account
Callsign, ship name or locator: Clear       
It is possible to search using wildcards (*?) after a prefix. Example: OH*
APRS station KE0EBF-9 - show graphs
Map loading...
Comment: Konza Overland - Brett
Location: 38°26.27' N 96°33.42' W - locator EM18RK35DB - show map - static map
4.6 miles North bearing 350° from Cottonwood Falls, Chase County, Kansas, United States [?]
15.8 miles South bearing 193° from Council Grove, Morris County, Kansas, United States
63.4 miles Southwest bearing 229° from Topeka, Shawnee County, Kansas, United States
66.7 miles Northeast bearing 39° from Wichita, Sedgwick County, Kansas, United States
Last position: 2019-03-24 17:39:48 EDT (1d 14h58m ago)
2019-03-24 16:39:48 CDT local time at Cottonwood Falls, United States [?]
Altitude: 1206 ft
Course:
Speed: 63 MPH
Device: Open Source: APRSdroid (app, Android)
Last path: KE0EBF-9>APDR15 via MATFLD,WIDE1*,WIDE2-1,qAR,KC0U-1 (good)
Positions stored: 15412
Packet rate: 144 seconds between packets on average during 6924 seconds.
Stations near current position of KE0EBF-9 - show more
callsign distance last heard - EDT      callsign distance last heard - EDT
146.985KS15.1 miles 139°2019-03-26 08:30:21 WX0U17.8 miles 90°2019-03-25 22:12:43
443.000KS18.2 miles 92°2019-03-26 08:34:46 K0ESU18.2 miles 92°2019-03-26 08:15:27
WX0U-118.2 miles 92°2019-03-26 08:11:06 WX0U-218.5 miles 97°2019-03-26 08:32:40
NS0G19.5 miles 94°2019-03-20 06:50:49 EMPRIA20.9 miles 100°2019-03-26 08:34:47
EMPRIA-620.9 miles 100°2019-03-01 04:58:08 147.045KS21.0 miles 162°2019-03-26 08:30:31
MATFLD21.3 miles 162°2019-03-26 08:30:02 K0SUN-526.3 miles 298°2019-03-08 10:59:29
MILLER34.0 miles 64°2019-03-26 08:28:34
Stations which heard KE0EBF-9 directly on radio –
callsign pkts first heard - EDT last heard longest (tx => rx) longest at - EDT
WERNER 51 2019-03-01 16:14:51 2019-03-06 08:41:45 DN60TA > DN60PK 34.6 miles 325° 2019-03-01 16:14:51
K0FJ-2 42 2019-03-01 10:30:40 2019-03-06 14:46:37 DM99GH > DM99LI 22.1 miles 82° 2019-03-01 10:57:31
CEDAR 1 2019-03-01 16:59:34 2019-03-01 16:59:34 DN60OI > DN60EN 45.6 miles 288° 2019-03-01 16:59:34
N0KTA 21 2019-03-23 09:59:12 2019-03-23 15:35:05 EM17NQ > EM17JN 20.9 miles 248° 2019-03-23 09:59:12
VAILMT 1 2019-03-01 15:27:47 2019-03-01 15:27:47 DM69XP > DM69TO 16.6 miles 260° 2019-03-01 15:27:47
ALMGRE 14 2019-03-01 12:26:21 2019-03-06 12:29:59 DM89GG > DM78MS 91.1 miles 248° 2019-03-06 12:29:59
KS0MAN-1 7 2019-03-01 07:16:13 2019-03-23 07:54:26 EM19NA > EM19RD 19.3 miles 60° 2019-03-21 13:21:08
KC0U-1 9 2019-03-24 15:50:49 2019-03-24 16:49:05 EM18SA > EM18WC 18.9 miles 71° 2019-03-24 16:30:19
K0FJ-8 2 2019-03-01 10:38:21 2019-03-01 10:39:44 DM99LI > DM99LJ 3.8 miles 337° 2019-03-01 10:38:21
SWANMT 37 2019-03-01 15:21:15 2019-03-06 10:12:47 DN60RJ > DM69XO 62.0 miles 152° 2019-03-06 08:40:00
N7JYS-6 2 2019-03-01 09:24:28 2019-03-01 09:35:05 EM08CX > EM08AP 27.6 miles 206° 2019-03-01 09:24:28
MATFLD 26 2019-03-24 15:44:24 2019-03-24 17:39:48 EM18RK > EM18SD 21.3 miles 162° 2019-03-24 17:39:48
QUAIL 2 2019-03-01 15:28:55 2019-03-06 09:15:00 DN60TA > DM69TA 67.8 miles 180° 2019-03-06 09:15:00
BVILLE 26 2019-03-01 14:30:08 2019-03-06 11:54:52 DM79XO > DM79CQ 92.1 miles 273° 2019-03-06 11:54:52
K0XK-5 2 2019-03-01 14:26:55 2019-03-06 10:53:09 DM79IQ > DM79OO 25.8 miles 105° 2019-03-01 14:26:55
DELPHS 7 2019-03-01 07:47:06 2019-03-06 17:23:15 EM18HW > EM19BF 31.8 miles 312° 2019-03-06 17:23:15
N7JYS-3 15 2019-03-01 08:40:49 2019-03-06 16:21:39 EM08PU > EM08NV 7.8 miles 287° 2019-03-06 16:21:39
N7JYS-4 44 2019-03-01 08:52:23 2019-03-06 16:05:32 DM99XA > EM08IW 38.1 miles 99° 2019-03-01 09:34:04
ERIDGE 71 2019-03-01 15:23:45 2019-03-06 10:11:06 DN60QJ > DM69SU 40.1 miles 162° 2019-03-06 08:32:25
KS0GLD-2 27 2019-03-01 11:00:31 2019-03-06 14:15:24 DM99AH > DM99DH 11.4 miles 91° 2019-03-06 13:30:13
AC0XW-1 3 2019-03-01 14:13:08 2019-03-06 11:05:46 DM79LS > DM79LT 2.9 miles 345° 2019-03-06 11:05:46
PANDO 1 2019-03-01 15:26:37 2019-03-01 15:26:37 DM69XP > DM69TJ 25.1 miles 227° 2019-03-01 15:26:37
W0ARP 2 2019-03-01 14:33:27 2019-03-06 11:29:53 DM79HR > DM79QL 43.5 miles 111° 2019-03-01 14:33:27
TABNSH 1 2019-03-06 09:24:06 2019-03-06 09:24:06 DM69UV > DN70CA 26.5 miles 72° 2019-03-06 09:24:06
K5RHD-10 2 2019-03-01 14:09:38 2019-03-06 10:59:17 DM79KR > DM79KU 8.7 miles 21° 2019-03-06 10:59:17
WALDEN 4 2019-03-01 16:44:50 2019-03-06 08:37:23 DN60QJ > DN60XL 29.4 miles 80° 2019-03-01 16:46:22
K0NTS-5 12 2019-03-01 14:29:48 2019-03-06 11:15:33 DM79MS > DM79GR 28.0 miles 262° 2019-03-06 11:15:33
W0UPS-10 2 2019-03-01 14:02:13 2019-03-06 11:25:04 DM79PR > DN70KM 58.0 miles 339° 2019-03-06 11:25:04
MCPHRS 11 2019-03-01 07:52:25 2019-03-23 08:44:41 EM18MO > EM18EL 37.2 miles 254° 2019-03-23 08:44:41
W0ARP-3 6 2019-03-01 14:23:53 2019-03-06 11:32:53 DM79IQ > DM79QL 36.2 miles 115° 2019-03-06 10:53:24
SALINA 23 2019-03-01 07:50:24 2019-03-06 17:15:07 EM18BV > EM18EU 13.3 miles 101° 2019-03-01 08:04:52
HUGO-10 18 2019-03-01 12:19:34 2019-03-06 12:28:58 DM89BI > DM89GB 28.2 miles 135° 2019-03-06 12:10:58
KE0AE 4 2019-03-01 12:15:44 2019-03-06 12:32:59 DM89HG > DM89GG 7.5 miles 264° 2019-03-06 12:32:59

Only position packets which were originated by the station are shown here. The range statistics show some extra long hops, because some digipeaters do not correctly add themselves to the digipeater path. Please check the raw packets.
About this site
This page shows real-time information collected from the Automatic Position Reporting System Internet network (APRS-IS). APRS is used by amateur (ham) radio operators to transmit real-time position information, weather data, telemetry and messages over the radio. A vehicle equipped with a GPS receiver, a VHF transmitter or HF transceiver and a small computer device called a tracker transmits it's location, speed and course in a small data packet, which is then received by a nearby iGate receiving site which forwards the packet on the Internet. Systems connected to the Internet can send information on the APRS-IS without a radio transmitter, or collect and display information transmitted anywhere in the world.
FAQ · Blog · Discussion group · Linking to aprs.fi · AIS sites · Service status · Database statistics · Advertising on aprs.fi · Technical details · API · Change log · Planned changes · Credits and thanks · Terms Of Service · iPhone/iPad APRS